createdAt,value
2023-04-15T00:02:18.751Z,59.64
2023-04-15T00:04:48.005Z,60.83
2023-04-15T00:07:16.412Z,64.18
2023-04-15T00:09:44.769Z,67.35
2023-04-15T00:12:13.299Z,64.04
2023-04-15T00:14:41.085Z,60.87
2023-04-15T00:17:09.178Z,57.75
2023-04-15T00:19:37.768Z,57.14
2023-04-15T00:22:06.207Z,58.50
2023-04-15T00:24:34.191Z,60.22
2023-04-15T00:27:02.025Z,64.50
2023-04-15T00:29:30.623Z,65.34
2023-04-15T00:31:58.586Z,62.83
2023-04-15T00:34:27.832Z,61.04
2023-04-15T00:36:55.621Z,58.41
2023-04-15T00:39:23.647Z,58.89
2023-04-15T00:41:51.928Z,60.57
2023-04-15T00:44:20.049Z,63.67
2023-04-15T00:46:48.724Z,65.01
2023-04-15T00:49:18.368Z,62.65
2023-04-15T00:51:46.228Z,60.97
2023-04-15T00:54:14.212Z,58.51
2023-04-15T00:56:42.681Z,58.40
2023-04-15T00:59:10.959Z,60.45
2023-04-15T01:01:38.867Z,63.79
2023-04-15T01:04:07.184Z,64.22
2023-04-15T01:06:35.275Z,61.59
2023-04-15T01:09:03.448Z,60.56
2023-04-15T01:11:34.312Z,58.64
2023-04-15T01:14:02.903Z,58.33
2023-04-15T01:16:31.591Z,60.74
2023-04-15T01:19:00.406Z,65.30
2023-04-15T01:21:29.924Z,63.53
2023-04-15T01:23:58.385Z,61.97
2023-04-15T01:26:26.204Z,61.00
2023-04-15T01:28:53.996Z,58.63
2023-04-15T01:31:23.062Z,58.86
2023-04-15T01:33:51.258Z,60.71
2023-04-15T01:36:19.002Z,63.83
2023-04-15T01:38:47.681Z,63.62
2023-04-15T01:41:15.562Z,62.98
2023-04-15T01:43:43.294Z,60.35
2023-04-15T01:46:11.226Z,58.08
2023-04-15T01:48:39.070Z,59.12
2023-04-15T01:51:06.803Z,61.16
2023-04-15T01:53:34.652Z,65.38
2023-04-15T01:56:03.471Z,65.15
2023-04-15T01:58:31.561Z,63.05
2023-04-15T02:00:59.325Z,59.69
2023-04-15T02:03:29.684Z,57.84
2023-04-15T02:05:57.719Z,59.33
2023-04-15T02:08:25.594Z,61.12
2023-04-15T02:10:53.465Z,65.67
2023-04-15T02:13:21.255Z,64.15
2023-04-15T02:15:50.912Z,62.26
2023-04-15T02:18:20.469Z,60.90
2023-04-15T02:20:48.887Z,59.78
2023-04-15T02:23:16.836Z,56.86
2023-04-15T02:25:53.831Z,58.50
2023-04-15T02:28:22.237Z,60.78
2023-04-15T02:30:54.404Z,64.41
2023-04-15T02:33:22.032Z,64.65
2023-04-15T02:35:49.816Z,62.09
2023-04-15T02:38:18.090Z,59.85
2023-04-15T02:40:46.500Z,57.74
2023-04-15T02:43:14.204Z,58.30
2023-04-15T02:45:43.523Z,60.78
2023-04-15T02:48:11.535Z,64.73
2023-04-15T02:50:40.710Z,63.67
2023-04-15T02:53:09.186Z,61.33
2023-04-15T02:55:37.016Z,59.96
2023-04-15T02:58:04.845Z,57.32
2023-04-15T03:00:32.698Z,57.99
2023-04-15T03:03:03.620Z,60.52
2023-04-15T03:05:31.647Z,64.64
2023-04-15T03:08:01.230Z,63.83
2023-04-15T03:10:29.229Z,60.83
2023-04-15T03:12:56.978Z,57.94
2023-04-15T03:15:24.915Z,58.02
2023-04-15T03:17:54.033Z,59.95
2023-04-15T03:20:21.902Z,64.37
2023-04-15T03:22:49.704Z,63.72
2023-04-15T03:25:17.557Z,60.16
2023-04-15T03:27:45.271Z,57.34
2023-04-15T03:30:13.709Z,58.39
2023-04-15T03:32:41.765Z,60.03
2023-04-15T03:35:09.845Z,62.67
2023-04-15T03:37:37.904Z,65.82
2023-04-15T03:40:06.290Z,63.24
2023-04-15T03:42:34.040Z,61.07
2023-04-15T03:45:01.761Z,58.71
2023-04-15T03:47:29.575Z,57.00
2023-04-15T03:49:57.303Z,58.61
2023-04-15T03:52:25.045Z,60.69
2023-04-15T03:54:52.976Z,64.77
2023-04-15T03:57:21.109Z,64.28
2023-04-15T03:59:48.905Z,61.40
2023-04-15T04:02:16.810Z,57.62
2023-04-15T04:04:44.773Z,57.51
2023-04-15T04:07:18.658Z,59.84
2023-04-15T04:09:47.408Z,61.38
2023-04-15T04:12:15.595Z,65.62
2023-04-15T04:14:43.410Z,64.88
2023-04-15T04:17:11.700Z,61.45
2023-04-15T04:19:39.562Z,58.35
2023-04-15T04:22:07.407Z,57.92
2023-04-15T04:24:35.309Z,59.19
2023-04-15T04:27:03.128Z,61.02
2023-04-15T04:29:30.972Z,65.32
2023-04-15T04:31:58.720Z,65.32
2023-04-15T04:34:26.654Z,60.85
2023-04-15T04:36:54.489Z,57.43
2023-04-15T04:39:22.184Z,56.99
2023-04-15T04:41:52.177Z,59.02
2023-04-15T04:44:20.025Z,59.88
2023-04-15T04:46:47.781Z,61.31
2023-04-15T04:49:15.538Z,65.30
2023-04-15T04:51:43.316Z,64.71
2023-04-15T04:54:11.840Z,60.62
2023-04-15T04:56:39.851Z,56.55
2023-04-15T04:59:07.767Z,56.49
2023-04-15T05:01:35.694Z,57.49
2023-04-15T05:04:05.465Z,59.15
2023-04-15T05:06:33.778Z,60.76
2023-04-15T05:09:01.893Z,64.32
2023-04-15T05:11:29.891Z,63.58
2023-04-15T05:13:58.187Z,57.67
2023-04-15T05:16:26.050Z,56.06
2023-04-15T05:18:54.141Z,57.46
2023-04-15T05:21:21.978Z,58.53
2023-04-15T05:23:49.806Z,59.49
2023-04-15T05:26:17.783Z,60.47
2023-04-15T05:28:46.155Z,61.03
2023-04-15T05:31:14.150Z,64.55
2023-04-15T05:33:42.279Z,64.73
2023-04-15T05:36:10.056Z,59.65
2023-04-15T05:38:37.856Z,55.07
2023-04-15T05:41:05.669Z,53.83
2023-04-15T05:43:33.382Z,54.94
2023-04-15T05:46:01.312Z,55.77
2023-04-15T05:48:29.231Z,56.53
2023-04-15T05:50:57.199Z,57.49
2023-04-15T05:53:24.975Z,58.04
2023-04-15T05:55:52.764Z,58.40
2023-04-15T05:58:20.717Z,58.68
2023-04-15T06:00:48.434Z,59.23
2023-04-15T06:03:16.894Z,59.53
2023-04-15T06:05:45.055Z,60.18
2023-04-15T06:08:16.224Z,60.02
2023-04-15T06:10:44.543Z,60.50
2023-04-15T06:13:13.068Z,60.76
2023-04-15T06:15:41.204Z,60.00
2023-04-15T06:18:08.979Z,60.62
2023-04-15T06:20:36.820Z,60.44
2023-04-15T06:23:04.728Z,60.34
2023-04-15T06:25:32.475Z,61.94
2023-04-15T06:28:00.466Z,63.35
2023-04-15T06:30:28.173Z,56.11
2023-04-15T06:32:56.233Z,52.54
2023-04-15T06:35:24.357Z,52.44
2023-04-15T06:37:52.809Z,52.54
2023-04-15T06:40:20.535Z,55.45
2023-04-15T06:42:48.329Z,56.56
2023-04-15T06:45:17.513Z,55.12
2023-04-15T06:47:45.533Z,54.76
2023-04-15T06:50:13.505Z,53.93
2023-04-15T06:52:41.619Z,54.08
2023-04-15T06:55:10.163Z,55.45
2023-04-15T06:57:38.002Z,55.55
2023-04-15T07:00:06.510Z,54.06
2023-04-15T07:02:34.565Z,53.32
2023-04-15T07:05:02.796Z,53.57
2023-04-15T07:07:30.635Z,53.33
2023-04-15T07:09:58.493Z,53.22
2023-04-15T07:12:26.357Z,52.97
2023-04-15T07:14:54.223Z,52.99
2023-04-15T07:17:22.334Z,52.52
2023-04-15T07:19:50.620Z,54.76
2023-04-15T07:22:18.486Z,52.16
2023-04-15T07:24:46.783Z,52.76
2023-04-15T07:27:14.610Z,52.25
2023-04-15T07:29:42.651Z,52.24
2023-04-15T07:32:10.862Z,51.65
2023-04-15T07:34:38.714Z,51.78
2023-04-15T07:37:06.622Z,52.31
2023-04-15T07:39:34.418Z,51.55
2023-04-15T07:42:02.351Z,51.93
2023-04-15T07:44:30.521Z,52.04
2023-04-15T07:46:58.487Z,51.96
2023-04-15T07:49:26.460Z,51.57
2023-04-15T07:51:54.915Z,51.72
2023-04-15T07:54:22.664Z,52.43
2023-04-15T07:56:50.550Z,52.32
2023-04-15T07:59:18.768Z,52.76
2023-04-15T13:02:37.203Z,39.58
2023-04-15T13:05:06.568Z,40.39
2023-04-15T13:07:34.319Z,39.28
2023-04-15T13:10:02.308Z,40.19
2023-04-15T13:12:31.181Z,39.50
2023-04-15T13:14:58.926Z,39.15
2023-04-15T13:17:26.958Z,39.06
2023-04-15T13:19:54.973Z,38.78
2023-04-15T13:22:22.929Z,38.63
2023-04-15T13:24:51.850Z,38.45
2023-04-15T13:27:19.685Z,38.39
2023-04-15T13:29:47.709Z,38.58
2023-04-15T13:32:15.448Z,38.71
2023-04-15T13:34:43.318Z,38.67
2023-04-15T13:37:11.291Z,39.00
2023-04-15T13:39:39.401Z,38.98
2023-04-15T13:42:07.303Z,39.04
2023-04-15T13:44:35.644Z,38.77
2023-04-15T13:47:03.850Z,38.18
2023-04-15T13:49:31.620Z,38.45
2023-04-15T13:51:59.313Z,39.51
2023-04-15T13:54:37.028Z,39.47
2023-04-15T13:57:06.718Z,38.09
2023-04-15T13:59:34.991Z,38.90
2023-04-15T14:02:02.902Z,38.37
2023-04-15T14:04:32.026Z,38.58
2023-04-15T14:06:59.849Z,38.25
2023-04-15T14:09:28.157Z,38.50
2023-04-15T14:11:56.514Z,38.49
2023-04-15T14:14:24.325Z,38.72
2023-04-15T14:16:52.093Z,39.30
2023-04-15T14:19:19.976Z,38.99
2023-04-15T14:21:48.193Z,39.36
2023-04-15T14:24:16.020Z,38.34
2023-04-15T14:26:44.699Z,38.11
2023-04-15T14:29:12.526Z,37.72
2023-04-15T14:31:41.206Z,37.31
2023-04-15T14:34:11.398Z,36.10
2023-04-15T14:36:40.368Z,36.86
2023-04-15T14:39:08.868Z,35.18
2023-04-15T14:41:37.661Z,34.12
2023-04-15T14:44:05.745Z,33.50
2023-04-15T14:46:33.643Z,31.93
2023-04-15T14:49:01.517Z,30.12
2023-04-15T14:51:29.259Z,29.55
2023-04-15T14:53:56.973Z,29.61
2023-04-15T14:56:24.845Z,28.16
2023-04-15T14:58:54.150Z,28.69
2023-04-15T15:01:22.095Z,28.81
2023-04-15T15:03:50.169Z,27.80
2023-04-15T15:06:18.081Z,26.49
2023-04-15T15:08:46.104Z,26.89
2023-04-15T15:11:13.939Z,26.64
2023-04-15T15:13:41.865Z,25.11
2023-04-15T15:16:10.617Z,24.49
2023-04-15T15:18:39.257Z,23.77
2023-04-15T15:21:07.046Z,23.63
2023-04-15T15:23:34.880Z,23.36
2023-04-15T15:26:02.758Z,20.86
2023-04-15T15:28:30.842Z,20.61
2023-04-15T15:30:58.544Z,21.78
2023-04-15T15:33:27.661Z,21.66
2023-04-15T15:35:58.707Z,21.08
2023-04-15T15:38:26.662Z,19.35
2023-04-15T15:40:54.371Z,18.19
2023-04-15T15:43:22.100Z,17.36
2023-04-15T15:45:52.262Z,17.32
2023-04-15T15:48:20.079Z,15.82
2023-04-15T15:50:47.872Z,15.46
2023-04-15T15:53:20.980Z,14.86
2023-04-15T15:55:48.813Z,14.81
2023-04-15T15:58:16.674Z,13.75
2023-04-15T16:00:44.430Z,13.24
2023-04-15T16:03:12.395Z,12.78
2023-04-15T16:05:40.375Z,12.82
2023-04-15T16:08:08.982Z,12.42
2023-04-15T16:10:38.267Z,11.91
2023-04-15T16:13:06.496Z,12.06
2023-04-15T16:15:34.600Z,11.06
2023-04-15T16:18:02.817Z,11.08
2023-04-15T16:20:31.331Z,10.84
2023-04-15T16:22:59.565Z,10.45
2023-04-15T16:25:27.829Z,10.44
2023-04-15T16:28:05.499Z,10.25
2023-04-15T16:30:40.816Z,10.75
2023-04-15T16:33:09.698Z,11.68
2023-04-15T16:35:37.801Z,11.64
2023-04-15T16:38:06.609Z,12.29
2023-04-15T16:40:35.107Z,13.52
2023-04-15T16:43:03.579Z,14.47
2023-04-15T16:45:31.643Z,15.65
2023-04-15T16:47:59.772Z,16.57
2023-04-15T16:50:28.206Z,17.36
2023-04-15T16:52:56.238Z,18.38
2023-04-15T16:55:24.509Z,19.44
2023-04-15T16:58:03.267Z,20.33
2023-04-15T17:00:33.275Z,21.48
2023-04-15T17:03:02.153Z,23.21
2023-04-15T17:05:31.167Z,24.54
2023-04-15T17:07:59.758Z,26.01
2023-04-15T17:10:28.038Z,26.41
2023-04-15T17:12:57.192Z,27.55
2023-04-15T17:15:26.010Z,28.79
2023-04-15T17:17:54.388Z,29.99
2023-04-15T17:20:22.478Z,31.62
2023-04-15T17:22:50.345Z,31.45
2023-04-15T17:25:19.397Z,32.40
2023-04-15T17:27:47.156Z,33.27
2023-04-15T17:30:14.885Z,34.25
2023-04-15T17:32:42.835Z,34.42
2023-04-15T17:35:10.758Z,34.65
2023-04-15T17:37:39.110Z,36.17
2023-04-15T17:40:08.746Z,36.99
2023-04-15T17:42:36.864Z,37.28
2023-04-15T17:45:05.737Z,37.93
2023-04-15T17:47:33.943Z,38.29
2023-04-15T17:50:02.307Z,38.12
2023-04-15T17:52:30.435Z,38.84
2023-04-15T17:54:58.565Z,39.42
2023-04-15T17:57:26.342Z,39.77
2023-04-15T17:59:54.505Z,40.31
2023-04-15T18:02:22.778Z,41.56
2023-04-15T18:04:51.067Z,42.45
2023-04-15T18:07:19.296Z,42.53
2023-04-15T18:09:47.476Z,43.92
2023-04-15T18:12:15.550Z,43.86
2023-04-15T18:14:43.718Z,44.81
2023-04-15T18:17:13.493Z,45.13
2023-04-15T18:19:41.940Z,45.84
2023-04-15T18:22:09.920Z,47.45
2023-04-15T18:24:37.933Z,48.52
2023-04-15T18:27:05.839Z,48.96
2023-04-15T18:29:34.981Z,49.86
2023-04-15T18:32:03.533Z,49.83
2023-04-15T18:34:31.401Z,50.39
2023-04-15T18:36:59.551Z,50.86
2023-04-15T18:39:27.747Z,51.22
2023-04-15T18:41:56.353Z,51.55
2023-04-15T18:44:24.383Z,52.17
2023-04-15T18:46:52.646Z,51.98
2023-04-15T18:49:22.493Z,52.26
2023-04-15T18:51:51.379Z,53.01
2023-04-15T18:54:19.123Z,53.40
2023-04-15T18:56:47.101Z,53.52
2023-04-15T18:59:29.782Z,54.06
2023-04-15T19:01:59.627Z,53.94
2023-04-15T19:04:31.020Z,54.34
2023-04-15T19:06:59.335Z,54.53
2023-04-15T19:09:28.748Z,55.04
2023-04-15T19:11:57.596Z,55.02
2023-04-15T19:14:25.795Z,55.42
2023-04-15T19:16:54.787Z,55.71
2023-04-15T19:19:22.607Z,56.10
2023-04-15T19:21:51.127Z,56.22
2023-04-15T19:24:20.087Z,56.31
2023-04-15T19:26:50.287Z,56.54
2023-04-15T19:29:18.619Z,56.68
2023-04-15T19:31:46.425Z,57.06
2023-04-15T19:34:14.735Z,57.27
2023-04-15T19:36:42.960Z,57.56
2023-04-15T19:39:11.450Z,58.30
2023-04-15T19:41:39.441Z,59.17
2023-04-15T19:44:07.306Z,59.31
2023-04-15T19:46:35.983Z,59.42
2023-04-15T19:49:04.363Z,59.23
2023-04-15T19:51:32.586Z,59.23
2023-04-15T19:54:00.615Z,59.28
2023-04-15T19:56:29.268Z,59.26
2023-04-15T19:58:57.153Z,59.28
2023-04-15T20:01:25.485Z,59.62
2023-04-15T20:03:54.591Z,59.54
2023-04-15T20:06:22.713Z,59.66
2023-04-15T20:08:50.813Z,59.89
2023-04-15T20:11:19.006Z,60.45
2023-04-15T20:13:46.884Z,60.60
2023-04-15T20:16:14.832Z,60.63
2023-04-15T20:18:42.695Z,60.84
2023-04-15T20:21:10.441Z,61.04
2023-04-15T20:23:38.737Z,60.49
2023-04-15T20:26:06.996Z,60.61
2023-04-15T20:28:34.870Z,61.22
2023-04-15T20:31:02.786Z,61.25
2023-04-15T20:33:30.857Z,61.46
2023-04-15T20:35:59.773Z,61.41
2023-04-15T20:38:27.683Z,61.44
2023-04-15T20:40:55.821Z,61.42
2023-04-15T20:43:24.294Z,61.78
2023-04-15T20:45:54.195Z,62.30
2023-04-15T20:48:23.093Z,66.23
2023-04-15T20:50:51.470Z,66.99
2023-04-15T20:53:19.635Z,61.64
2023-04-15T20:55:47.799Z,56.04
2023-04-15T20:58:15.884Z,54.18
2023-04-15T21:00:45.424Z,54.72
2023-04-15T21:03:13.528Z,55.51
2023-04-15T21:05:41.688Z,56.24
2023-04-15T21:08:09.889Z,56.83
2023-04-15T21:10:37.564Z,57.22
2023-04-15T21:13:06.728Z,57.76
2023-04-15T21:15:34.842Z,58.45
2023-04-15T21:18:02.637Z,58.69
2023-04-15T21:20:30.373Z,59.20
2023-04-15T21:22:58.117Z,59.67
2023-04-15T21:25:26.171Z,60.03
2023-04-15T21:27:54.114Z,60.42
2023-04-15T21:30:23.786Z,60.90
2023-04-15T21:32:51.612Z,61.27
2023-04-15T21:35:19.787Z,61.71
2023-04-15T21:37:47.899Z,65.45
2023-04-15T21:40:16.312Z,66.21
2023-04-15T21:42:44.209Z,60.59
2023-04-15T21:45:12.062Z,55.53
2023-04-15T21:48:05.879Z,54.20
2023-04-15T21:50:27.837Z,54.97
2023-04-15T21:52:56.120Z,55.75
2023-04-15T21:55:23.941Z,56.73
2023-04-15T21:57:52.035Z,57.23
2023-04-15T22:00:20.156Z,57.75
2023-04-15T22:02:48.125Z,58.41
2023-04-15T22:05:16.788Z,59.26
2023-04-15T22:07:44.579Z,59.62
2023-04-15T22:10:12.551Z,60.17
2023-04-15T22:12:41.979Z,60.40
2023-04-15T22:15:09.999Z,60.58
2023-04-15T22:17:37.933Z,61.19
2023-04-15T22:20:06.631Z,61.51
2023-04-15T22:22:44.225Z,61.74
2023-04-15T22:25:12.793Z,66.20
2023-04-15T22:27:40.843Z,66.21
2023-04-15T22:30:09.643Z,60.54
2023-04-15T22:32:37.770Z,54.85
2023-04-15T22:35:06.684Z,53.65
2023-04-15T22:37:34.527Z,54.31
2023-04-15T22:40:02.746Z,55.33
2023-04-15T22:42:30.908Z,56.08
2023-04-15T22:44:58.636Z,57.17
2023-04-15T22:47:27.086Z,58.14
2023-04-15T22:49:57.276Z,58.50
2023-04-15T22:52:30.670Z,59.22
2023-04-15T22:54:59.632Z,59.62
2023-04-15T22:57:28.522Z,60.47
2023-04-15T22:59:56.402Z,60.71
2023-04-15T23:02:24.546Z,61.04
2023-04-15T23:04:52.578Z,61.44
2023-04-15T23:07:20.412Z,61.99
2023-04-15T23:09:48.139Z,66.70
2023-04-15T23:12:16.017Z,66.70
2023-04-15T23:14:43.866Z,60.62
2023-04-15T23:17:11.650Z,54.67
2023-04-15T23:19:39.480Z,53.36
2023-04-15T23:22:10.521Z,54.29
2023-04-15T23:24:38.532Z,55.20
2023-04-15T23:27:06.270Z,56.50
2023-04-15T23:29:34.395Z,57.13
2023-04-15T23:32:02.284Z,57.46
2023-04-15T23:34:30.075Z,57.81
2023-04-15T23:36:57.837Z,58.29
2023-04-15T23:39:25.764Z,58.79
2023-04-15T23:41:53.550Z,59.86
2023-04-15T23:44:22.370Z,60.08
2023-04-15T23:46:51.363Z,61.20
2023-04-15T23:49:20.328Z,61.64
2023-04-15T23:51:48.752Z,64.93
2023-04-15T23:54:16.540Z,66.01
2023-04-15T23:56:44.342Z,61.06
2023-04-15T23:59:12.173Z,55.42
